createdAt,value
2022-11-13T00:01:25.451Z,101652.31
2022-11-13T00:04:10.953Z,101653.97
2022-11-13T00:06:59.529Z,101638.97
2022-11-13T00:09:45.092Z,101640.75
2022-11-13T00:12:31.457Z,101632.88
2022-11-13T00:15:17.860Z,101622.94
2022-11-13T00:18:04.208Z,101634.06
2022-11-13T00:20:49.441Z,101634.91
2022-11-13T00:23:36.000Z,101628.09
2022-11-13T00:26:27.821Z,101642.53
2022-11-13T00:29:13.034Z,101631.38
2022-11-13T00:31:58.144Z,101630.34
2022-11-13T00:34:48.124Z,101632.72
2022-11-13T00:37:34.475Z,101626.84
2022-11-13T00:40:19.890Z,101632.19
2022-11-13T00:43:05.234Z,101629.75
2022-11-13T00:45:50.707Z,101627.06
2022-11-13T00:48:36.928Z,101628.09
2022-11-13T00:51:22.594Z,101627.28
2022-11-13T00:54:07.722Z,101625.31
2022-11-13T00:56:52.974Z,101624.69
2022-11-13T00:59:40.595Z,101634.88
2022-11-13T01:02:26.101Z,101634.97
2022-11-13T01:05:11.454Z,101630.63
2022-11-13T01:07:57.021Z,101634.41
2022-11-13T01:10:53.774Z,101635.72
2022-11-13T01:13:41.629Z,101636.50
2022-11-13T01:16:27.945Z,101634.31
2022-11-13T01:19:14.381Z,101625.00
2022-11-13T01:21:59.779Z,101615.28
2022-11-13T01:24:44.926Z,101619.47
2022-11-13T01:27:30.594Z,101624.81
2022-11-13T01:30:16.589Z,101611.22
2022-11-13T01:33:03.564Z,101607.78
2022-11-13T01:35:49.092Z,101598.59
2022-11-13T01:38:36.998Z,101602.25
2022-11-13T01:41:32.741Z,101595.38
2022-11-13T01:44:19.370Z,101592.16
2022-11-13T01:47:07.246Z,101599.06
2022-11-13T01:49:57.632Z,101603.28
2022-11-13T01:52:43.137Z,101601.72
2022-11-13T01:55:29.214Z,101591.97
2022-11-13T01:58:14.702Z,101585.22
2022-11-13T02:01:00.059Z,101588.13
2022-11-13T02:03:45.805Z,101573.28
2022-11-13T02:06:49.391Z,101578.75
2022-11-13T02:09:43.329Z,101578.06
2022-11-13T02:12:33.248Z,101584.44
2022-11-13T02:15:40.936Z,101578.66
2022-11-13T02:18:29.815Z,101569.41
2022-11-13T02:21:42.512Z,101568.38
2022-11-13T02:24:32.636Z,101559.94
2022-11-13T02:27:32.524Z,101568.94
2022-11-13T02:30:26.903Z,101561.41
2022-11-13T02:33:22.719Z,101544.28
2022-11-13T02:36:11.918Z,101552.44
2022-11-13T02:39:02.114Z,101546.31
2022-11-13T02:41:47.354Z,101546.16
2022-11-13T02:44:32.903Z,101546.53
2022-11-13T02:47:18.303Z,101548.03
2022-11-13T02:50:04.643Z,101544.19
2022-11-13T02:52:50.345Z,101546.59
2022-11-13T02:55:35.900Z,101549.78
2022-11-13T02:58:22.249Z,101542.94
2022-11-13T03:01:07.583Z,101544.66
2022-11-13T03:04:00.015Z,101533.78
2022-11-13T03:06:45.304Z,101530.91
2022-11-13T03:09:31.498Z,101529.56
2022-11-13T03:12:16.726Z,101528.19
2022-11-13T03:15:02.422Z,101533.91
2022-11-13T03:17:48.002Z,101531.00
2022-11-13T03:20:35.657Z,101520.88
2022-11-13T03:23:21.116Z,101517.81
2022-11-13T03:26:11.537Z,101511.31
2022-11-13T03:28:57.363Z,101512.09
2022-11-13T03:31:44.262Z,101504.41
2022-11-13T03:34:29.397Z,101496.00
2022-11-13T03:37:14.799Z,101515.00
2022-11-13T03:40:00.115Z,101508.53
2022-11-13T03:42:45.827Z,101501.84
2022-11-13T03:45:33.099Z,101509.78
2022-11-13T03:48:18.294Z,101506.56
2022-11-13T03:51:04.029Z,101511.19
2022-11-13T03:53:49.134Z,101511.44
2022-11-13T03:56:34.130Z,101498.59
2022-11-13T03:59:19.136Z,101497.31
2022-11-13T04:02:05.529Z,101499.47
2022-11-13T04:04:51.138Z,101487.75
2022-11-13T04:07:36.755Z,101499.38
2022-11-13T04:10:24.958Z,101493.34
2022-11-13T04:13:10.324Z,101501.72
2022-11-13T04:15:55.822Z,101492.38
2022-11-13T04:18:40.980Z,101497.97
2022-11-13T04:21:27.711Z,101481.53
2022-11-13T04:24:13.641Z,101485.25
2022-11-13T04:26:58.774Z,101473.59
2022-11-13T04:29:43.845Z,101476.44
2022-11-13T04:32:30.546Z,101472.31
2022-11-13T04:35:18.230Z,101480.25
2022-11-13T04:38:03.572Z,101469.66
2022-11-13T04:40:51.471Z,101478.88
2022-11-13T04:43:37.440Z,101473.75
2022-11-13T04:46:22.807Z,101472.53
2022-11-13T04:49:09.053Z,101468.88
2022-11-13T04:51:54.183Z,101460.41
2022-11-13T04:54:39.426Z,101454.47
2022-11-13T04:57:24.907Z,101453.06
2022-11-13T05:00:14.719Z,101449.59
2022-11-13T05:03:00.888Z,101443.69
2022-11-13T05:05:46.567Z,101448.00
2022-11-13T05:08:31.934Z,101442.81
2022-11-13T05:11:17.209Z,101446.13
2022-11-13T05:14:03.578Z,101442.34
2022-11-13T05:16:50.110Z,101430.09
2022-11-13T05:19:35.837Z,101434.84
2022-11-13T05:22:20.910Z,101428.75
2022-11-13T05:25:06.931Z,101429.69
2022-11-13T05:27:52.045Z,101427.78
2022-11-13T05:30:37.509Z,101414.97
2022-11-13T05:33:22.719Z,101408.94
2022-11-13T05:36:12.403Z,101413.16
2022-11-13T05:38:58.774Z,101403.94
2022-11-13T05:41:46.188Z,101413.41
2022-11-13T05:44:31.497Z,101403.47
2022-11-13T05:47:17.218Z,101397.97
2022-11-13T05:50:02.854Z,101400.06
2022-11-13T05:52:48.960Z,101403.88
2022-11-13T05:55:34.454Z,101410.16
2022-11-13T05:58:19.721Z,101407.50
2022-11-13T06:01:08.129Z,101400.50
2022-11-13T06:03:55.349Z,101386.34
2022-11-13T06:06:42.401Z,101384.81
2022-11-13T06:09:27.888Z,101388.81
2022-11-13T06:12:13.207Z,101384.28
2022-11-13T06:14:58.520Z,101381.88
2022-11-13T06:17:48.739Z,101387.97
2022-11-13T06:20:37.582Z,101378.19
2022-11-13T06:23:22.551Z,101378.69
2022-11-13T06:26:14.845Z,101374.94
2022-11-13T06:29:01.289Z,101382.13
2022-11-13T06:31:46.722Z,101363.59
2022-11-13T06:34:38.162Z,101362.16
2022-11-13T06:37:23.183Z,101377.25
2022-11-13T06:40:09.125Z,101371.91
2022-11-13T06:42:57.523Z,101369.78
2022-11-13T06:45:42.706Z,101369.16
2022-11-13T06:48:28.363Z,101361.03
2022-11-13T06:51:16.786Z,101362.44
2022-11-13T06:54:02.133Z,101363.16
2022-11-13T06:56:48.122Z,101344.41
2022-11-13T06:59:33.165Z,101349.19
2022-11-13T07:02:19.169Z,101341.19
2022-11-13T07:05:05.362Z,101345.38
2022-11-13T07:07:52.570Z,101345.47
2022-11-13T07:10:38.315Z,101343.03
2022-11-13T07:13:25.535Z,101356.56
2022-11-13T07:16:19.123Z,101356.88
2022-11-13T07:19:04.736Z,101353.47
2022-11-13T07:21:50.261Z,101350.13
2022-11-13T07:24:35.421Z,101356.44
2022-11-13T07:27:20.716Z,101348.34
2022-11-13T07:30:06.815Z,101346.16
2022-11-13T07:32:52.366Z,101345.91
2022-11-13T07:35:37.374Z,101342.06
2022-11-13T07:38:23.597Z,101339.50
2022-11-13T07:41:08.894Z,101334.44
2022-11-13T07:43:54.462Z,101341.34
2022-11-13T07:46:39.544Z,101343.28
2022-11-13T07:49:24.780Z,101346.91
2022-11-13T07:52:10.079Z,101344.28
2022-11-13T07:54:55.696Z,101351.69
2022-11-13T07:57:41.107Z,101343.47
2022-11-13T08:00:28.462Z,101346.88
2022-11-13T08:03:15.989Z,101334.50
2022-11-13T08:06:07.843Z,101327.81
2022-11-13T08:08:53.762Z,101338.09
2022-11-13T08:11:38.870Z,101332.31
2022-11-13T08:14:24.349Z,101332.84
2022-11-13T08:17:10.792Z,101325.66
2022-11-13T08:19:56.644Z,101332.81
2022-11-13T08:22:42.051Z,101326.44
2022-11-13T08:25:28.188Z,101331.91
2022-11-13T08:28:13.689Z,101325.59
2022-11-13T08:31:00.767Z,101322.94
2022-11-13T08:33:45.873Z,101322.19
2022-11-13T08:36:31.442Z,101328.78
2022-11-13T08:39:17.245Z,101315.44
2022-11-13T08:42:04.242Z,101318.25
2022-11-13T08:44:49.516Z,101320.91
2022-11-13T08:47:34.522Z,101314.31
2022-11-13T08:50:19.736Z,101309.28
2022-11-13T08:53:05.848Z,101316.22
2022-11-13T08:55:51.050Z,101301.88
2022-11-13T08:58:36.340Z,101302.09
2022-11-13T09:01:22.917Z,101302.56
2022-11-13T09:04:10.925Z,101288.50
2022-11-13T09:06:56.921Z,101292.72
2022-11-13T09:09:42.410Z,101292.91
2022-11-13T09:12:27.601Z,101290.25
2022-11-13T09:15:13.035Z,101290.66
2022-11-13T09:18:00.340Z,101284.09
2022-11-13T09:20:45.974Z,101288.59
2022-11-13T09:23:31.654Z,101289.81
2022-11-13T09:26:18.348Z,101283.25
2022-11-13T09:29:03.936Z,101283.78
2022-11-13T09:31:50.153Z,101273.19
2022-11-13T09:34:35.145Z,101271.03
2022-11-13T09:37:21.403Z,101269.06
2022-11-13T09:40:11.678Z,101271.38
2022-11-13T09:42:57.325Z,101267.88
2022-11-13T09:45:44.044Z,101262.31
2022-11-13T09:48:42.262Z,101251.81
2022-11-13T09:51:38.577Z,101252.31
2022-11-13T09:54:24.044Z,101244.88
2022-11-13T09:57:29.919Z,101237.94
2022-11-13T10:00:22.338Z,101237.09
2022-11-13T10:03:54.016Z,101233.59
2022-11-13T10:06:39.131Z,101221.03
2022-11-13T10:09:48.205Z,101212.16
2022-11-13T10:12:33.998Z,101214.78
2022-11-13T10:15:28.843Z,101208.94
2022-11-13T10:18:21.295Z,101199.34
2022-11-13T10:21:26.067Z,101188.59
2022-11-13T10:24:18.735Z,101185.09
2022-11-13T10:27:09.953Z,101189.44
2022-11-13T10:29:56.104Z,101188.41
2022-11-13T10:32:42.178Z,101182.63
2022-11-13T10:35:47.113Z,101191.47
2022-11-13T10:38:38.805Z,101189.06
2022-11-13T10:41:24.470Z,101185.31
2022-11-13T10:44:20.185Z,101185.97
2022-11-13T10:47:36.068Z,101169.91
2022-11-13T10:50:30.242Z,101159.19
2022-11-13T10:53:17.675Z,101161.84
2022-11-13T10:56:13.550Z,101145.69
2022-11-13T10:59:14.912Z,101145.94
2022-11-13T11:02:16.112Z,101136.66
2022-11-13T11:05:20.277Z,101126.94
2022-11-13T11:08:10.135Z,101136.41
2022-11-13T11:11:19.863Z,101144.28
2022-11-13T11:14:22.548Z,101143.63
2022-11-13T11:17:12.739Z,101128.31
2022-11-13T11:20:07.260Z,101130.81
2022-11-13T11:23:02.248Z,101123.88
2022-11-13T11:25:55.513Z,101119.16
2022-11-13T11:28:52.429Z,101116.94
2022-11-13T11:31:56.429Z,101130.00
2022-11-13T11:34:54.952Z,101112.47
2022-11-13T11:38:25.527Z,101108.66
2022-11-13T11:41:17.169Z,101105.03
2022-11-13T11:44:13.812Z,101105.97
2022-11-13T11:46:58.855Z,101098.22
2022-11-13T11:49:45.405Z,101092.66
2022-11-13T11:52:54.534Z,101089.75
2022-11-13T11:56:00.096Z,101092.88
2022-11-13T11:59:16.096Z,101083.09
2022-11-13T12:02:31.148Z,101084.69
2022-11-13T12:05:20.333Z,101074.81
2022-11-13T12:08:22.939Z,101071.91
2022-11-13T12:11:28.508Z,101061.47
2022-11-13T12:14:33.223Z,101048.31
2022-11-13T12:17:39.636Z,101036.13
2022-11-13T12:21:10.332Z,101027.19
2022-11-13T12:24:14.021Z,101016.22
2022-11-13T12:27:41.989Z,100996.34
2022-11-13T12:30:41.311Z,100980.03
2022-11-13T12:34:00.905Z,100982.06
2022-11-13T12:36:47.683Z,100973.00
2022-11-13T12:39:52.303Z,100961.75
2022-11-13T12:42:49.750Z,100961.25
2022-11-13T12:45:50.431Z,100955.41
2022-11-13T12:48:38.830Z,100951.03
2022-11-13T12:51:24.345Z,100940.06
2022-11-13T12:54:10.865Z,100936.63
2022-11-13T12:57:14.455Z,100930.28
2022-11-13T13:00:21.528Z,100919.84
2022-11-13T13:03:13.183Z,100909.84
2022-11-13T13:06:13.358Z,100899.38
2022-11-13T13:09:27.354Z,100896.16
2022-11-13T13:12:50.261Z,100894.13
2022-11-13T13:15:38.591Z,100897.28
2022-11-13T13:18:28.805Z,100894.88
2022-11-13T13:21:19.613Z,100903.81
2022-11-13T13:24:27.246Z,100904.00
2022-11-13T13:27:27.314Z,100899.66
2022-11-13T13:30:22.577Z,100901.03
2022-11-13T13:33:31.303Z,100896.16
2022-11-13T13:36:23.871Z,100898.25
2022-11-13T13:39:25.763Z,100883.88
2022-11-13T13:42:36.338Z,100874.75
2022-11-13T13:45:27.434Z,100868.47
2022-11-13T13:48:19.333Z,100860.28
2022-11-13T13:51:19.725Z,100857.84
2022-11-13T13:54:08.206Z,100854.44
2022-11-13T13:56:56.109Z,100841.09
2022-11-13T13:59:44.965Z,100831.47
2022-11-13T14:02:31.226Z,100826.56
2022-11-13T14:05:29.786Z,100828.97
2022-11-13T14:08:20.733Z,100828.56
2022-11-13T14:11:34.483Z,100822.72
2022-11-13T14:14:22.515Z,100817.75
2022-11-13T14:17:10.031Z,100820.50
2022-11-13T14:20:00.787Z,100815.34
2022-11-13T14:22:53.279Z,100813.34
2022-11-13T14:25:43.810Z,100803.25
2022-11-13T14:28:31.975Z,100793.53
2022-11-13T14:31:17.683Z,100784.53
2022-11-13T14:34:10.612Z,100786.59
2022-11-13T14:36:56.168Z,100774.00
2022-11-13T14:39:47.066Z,100778.88
2022-11-13T14:42:37.724Z,100774.25
2022-11-13T14:45:32.045Z,100776.56
2022-11-13T14:48:22.758Z,100770.38
2022-11-13T14:51:28.875Z,100763.03
2022-11-13T14:55:08.011Z,100761.47
2022-11-13T14:57:49.711Z,100755.16
2022-11-13T15:00:37.896Z,100761.03
2022-11-13T15:03:24.663Z,100757.66
2022-11-13T15:06:19.372Z,100751.13
2022-11-13T15:09:16.495Z,100752.72
2022-11-13T15:12:05.759Z,100751.94
2022-11-13T15:14:51.459Z,100747.28
2022-11-13T15:17:36.829Z,100747.53
2022-11-13T15:20:27.571Z,100741.78
2022-11-13T15:23:15.548Z,100740.72
2022-11-13T15:26:00.739Z,100739.72
2022-11-13T15:28:46.082Z,100733.28
2022-11-13T15:31:42.524Z,100739.97
2022-11-13T15:34:29.084Z,100727.09
2022-11-13T15:37:16.541Z,100735.28
2022-11-13T15:40:02.281Z,100739.59
2022-11-13T15:42:48.094Z,100743.38
2022-11-13T15:45:34.222Z,100741.75
2022-11-13T15:48:19.754Z,100746.03
2022-11-13T15:51:05.402Z,100749.34
2022-11-13T15:54:13.762Z,100748.75
2022-11-13T15:56:58.856Z,100732.38
2022-11-13T15:59:43.964Z,100729.44
2022-11-13T16:02:31.645Z,100730.72
2022-11-13T16:05:17.316Z,100730.28
2022-11-13T16:08:03.527Z,100736.94
2022-11-13T16:10:48.874Z,100743.47
2022-11-13T16:13:34.030Z,100748.59
2022-11-13T16:16:23.533Z,100746.28
2022-11-13T16:19:15.012Z,100745.47
2022-11-13T16:22:00.167Z,100741.44
2022-11-13T16:24:48.715Z,100743.09
2022-11-13T16:27:34.455Z,100745.41
2022-11-13T16:30:23.295Z,100741.44
2022-11-13T16:33:12.771Z,100746.59
2022-11-13T16:35:59.372Z,100742.59
2022-11-13T16:38:45.158Z,100741.22
2022-11-13T16:41:31.851Z,100741.84
2022-11-13T16:44:18.374Z,100749.25
2022-11-13T16:47:05.520Z,100748.75
2022-11-13T16:49:51.216Z,100741.75
2022-11-13T16:52:36.659Z,100739.63
2022-11-13T16:55:21.815Z,100735.84
2022-11-13T16:58:07.280Z,100730.06
2022-11-13T17:00:59.791Z,100733.97
2022-11-13T17:03:45.948Z,100742.72
2022-11-13T17:06:34.465Z,100732.75
2022-11-13T17:09:19.987Z,100734.03
2022-11-13T17:12:05.482Z,100732.97
2022-11-13T17:14:50.446Z,100726.28
2022-11-13T17:17:35.798Z,100729.53
2022-11-13T17:20:22.277Z,100729.88
2022-11-13T17:23:11.246Z,100723.66
2022-11-13T17:25:56.390Z,100724.88
2022-11-13T17:28:41.679Z,100714.34
2022-11-13T17:31:27.680Z,100715.41
2022-11-13T17:34:13.058Z,100711.81
2022-11-13T17:36:58.464Z,100709.13
2022-11-13T17:39:43.641Z,100709.59
2022-11-13T17:42:30.890Z,100713.97
2022-11-13T17:45:16.138Z,100714.13
2022-11-13T17:48:02.199Z,100705.41
2022-11-13T17:50:57.520Z,100709.81
2022-11-13T17:53:42.861Z,100705.28
2022-11-13T17:56:28.415Z,100713.25
2022-11-13T17:59:14.070Z,100703.28
2022-11-13T18:02:00.482Z,100705.03
2022-11-13T18:04:46.144Z,100701.19
2022-11-13T18:07:34.817Z,100706.50
2022-11-13T18:10:19.906Z,100701.78
2022-11-13T18:13:05.869Z,100709.53
2022-11-13T18:15:51.339Z,100716.13
2022-11-13T18:18:37.331Z,100704.66
2022-11-13T18:21:25.357Z,100699.09
2022-11-13T18:24:16.329Z,100690.56
2022-11-13T18:27:01.956Z,100681.94
2022-11-13T18:29:47.400Z,100683.06
2022-11-13T18:32:32.732Z,100676.66
2022-11-13T18:35:17.908Z,100685.03
2022-11-13T18:38:03.327Z,100683.66
2022-11-13T18:40:48.478Z,100678.16
2022-11-13T18:43:34.093Z,100674.66
2022-11-13T18:46:23.491Z,100677.47
2022-11-13T18:49:09.324Z,100673.47
2022-11-13T18:51:54.661Z,100669.22
2022-11-13T18:54:40.250Z,100673.47
2022-11-13T18:57:26.124Z,100676.97
2022-11-13T19:00:11.757Z,100669.06
2022-11-13T19:02:58.216Z,100663.28
2022-11-13T19:05:47.378Z,100671.16
2022-11-13T19:08:38.210Z,100663.88
2022-11-13T19:11:28.060Z,100659.56
2022-11-13T19:14:15.528Z,100647.94
2022-11-13T19:17:00.691Z,100647.44
2022-11-13T19:19:46.145Z,100652.78
2022-11-13T19:22:32.267Z,100649.00
2022-11-13T19:25:17.606Z,100646.31
2022-11-13T19:28:07.852Z,100648.69
2022-11-13T19:30:56.391Z,100649.63
2022-11-13T19:33:41.821Z,100652.03
2022-11-13T19:36:28.943Z,100649.47
2022-11-13T19:39:14.271Z,100647.03
2022-11-13T19:41:59.893Z,100642.88
2022-11-13T19:44:45.519Z,100642.63
2022-11-13T19:47:31.152Z,100639.03
2022-11-13T19:50:16.939Z,100631.66
2022-11-13T19:53:02.196Z,100635.69
2022-11-13T19:55:55.302Z,100642.03
2022-11-13T19:58:44.335Z,100631.97
2022-11-13T20:01:31.742Z,100638.03
2022-11-13T20:04:17.840Z,100639.31
2022-11-13T20:07:03.236Z,100649.34
2022-11-13T20:09:48.389Z,100631.81
2022-11-13T20:12:35.335Z,100627.81
2022-11-13T20:15:20.541Z,100636.97
2022-11-13T20:18:05.898Z,100633.53
2022-11-13T20:20:54.686Z,100636.44
2022-11-13T20:23:40.885Z,100633.94
2022-11-13T20:26:27.381Z,100636.09
2022-11-13T20:29:15.903Z,100625.25
2022-11-13T20:32:04.650Z,100627.25
2022-11-13T20:34:49.978Z,100633.72
2022-11-13T20:37:35.720Z,100632.63
2022-11-13T20:40:21.845Z,100630.47
2022-11-13T20:43:07.111Z,100636.94
2022-11-13T20:46:11.922Z,100636.94
2022-11-13T20:48:57.569Z,100634.81
2022-11-13T20:51:45.236Z,100637.03
2022-11-13T20:54:33.818Z,100633.66
2022-11-13T20:57:21.473Z,100631.06
2022-11-13T21:00:07.370Z,100631.56
2022-11-13T21:02:52.930Z,100632.63
2022-11-13T21:05:38.361Z,100625.84
2022-11-13T21:08:23.733Z,100622.19
2022-11-13T21:11:19.632Z,100632.69
2022-11-13T21:14:05.550Z,100633.94
2022-11-13T21:16:51.692Z,100638.78
2022-11-13T21:19:37.145Z,100638.88
2022-11-13T21:22:22.829Z,100627.25
2022-11-13T21:25:08.228Z,100637.31
2022-11-13T21:27:55.008Z,100633.25
2022-11-13T21:30:40.288Z,100630.47
2022-11-13T21:33:26.033Z,100635.00
2022-11-13T21:36:16.756Z,100630.94
2022-11-13T21:39:02.054Z,100620.66
2022-11-13T21:41:47.430Z,100619.75
2022-11-13T21:44:32.465Z,100628.06
2022-11-13T21:47:17.615Z,100615.59
2022-11-13T21:50:08.819Z,100626.16
2022-11-13T21:52:54.217Z,100626.44
2022-11-13T21:55:39.542Z,100623.81
2022-11-13T21:58:33.136Z,100626.28
2022-11-13T22:01:18.920Z,100627.56
2022-11-13T22:04:04.460Z,100623.09
2022-11-13T22:06:51.237Z,100622.25
2022-11-13T22:09:38.125Z,100622.19
2022-11-13T22:12:24.220Z,100624.50
2022-11-13T22:15:10.715Z,100617.28
2022-11-13T22:17:56.011Z,100616.66
2022-11-13T22:20:41.515Z,100610.78
2022-11-13T22:23:27.918Z,100604.22
2022-11-13T22:26:15.044Z,100601.94
2022-11-13T22:29:00.649Z,100600.28
2022-11-13T22:31:47.994Z,100604.59
2022-11-13T22:34:33.539Z,100592.69
2022-11-13T22:37:18.798Z,100595.53
2022-11-13T22:40:04.338Z,100590.66
2022-11-13T22:42:49.647Z,100592.47
2022-11-13T22:45:34.848Z,100585.88
2022-11-13T22:48:20.053Z,100581.97
2022-11-13T22:51:14.630Z,100585.25
2022-11-13T22:54:04.201Z,100583.38
2022-11-13T22:56:49.820Z,100589.50
2022-11-13T22:59:35.199Z,100587.66
2022-11-13T23:02:20.339Z,100583.75
2022-11-13T23:05:06.006Z,100589.28
2022-11-13T23:07:53.016Z,100583.13
2022-11-13T23:10:38.467Z,100587.66
2022-11-13T23:13:24.956Z,100587.41
2022-11-13T23:16:14.124Z,100596.44
2022-11-13T23:19:00.782Z,100591.31
2022-11-13T23:21:46.518Z,100590.88
2022-11-13T23:24:33.215Z,100595.75
2022-11-13T23:27:18.938Z,100590.63
2022-11-13T23:30:04.585Z,100577.66
2022-11-13T23:32:50.153Z,100578.97
2022-11-13T23:35:35.683Z,100581.34
2022-11-13T23:38:21.605Z,100575.78
2022-11-13T23:41:07.236Z,100579.59
2022-11-13T23:44:09.541Z,100567.34
2022-11-13T23:46:55.042Z,100566.53
2022-11-13T23:49:40.612Z,100563.97
2022-11-13T23:52:26.326Z,100563.28
2022-11-13T23:55:11.635Z,100573.09
2022-11-13T23:58:02.124Z,100568.63
